sensor_id;sensor_type;location;lat;lon;timestamp;temperature;humidity
30063;DHT22;16889;67.864;24.990;2023-09-30T00:01:36;11.30;99.90
30063;DHT22;16889;67.864;24.990;2023-09-30T00:06:22;11.30;99.90
30063;DHT22;16889;67.864;24.990;2023-09-30T00:11:08;11.30;99.90
30063;DHT22;16889;67.864;24.990;2023-09-30T00:15:55;11.30;99.90
30063;DHT22;16889;67.864;24.990;2023-09-30T00:20:41;11.30;99.90
30063;DHT22;16889;67.864;24.990;2023-09-30T00:25:27;11.20;99.90
30063;DHT22;16889;67.864;24.990;2023-09-30T00:30:13;11.30;99.90
30063;DHT22;16889;67.864;24.990;2023-09-30T00:35:01;11.30;99.90
30063;DHT22;16889;67.864;24.990;2023-09-30T00:39:47;11.30;99.90
30063;DHT22;16889;67.864;24.990;2023-09-30T00:44:33;11.20;99.90
30063;DHT22;16889;67.864;24.990;2023-09-30T00:49:19;11.20;99.90
30063;DHT22;16889;67.864;24.990;2023-09-30T00:54:05;11.20;99.90
30063;DHT22;16889;67.864;24.990;2023-09-30T00:58:52;11.20;99.90
30063;DHT22;16889;67.864;24.990;2023-09-30T01:03:39;11.20;99.90
30063;DHT22;16889;67.864;24.990;2023-09-30T01:08:25;11.20;99.90
30063;DHT22;16889;67.864;24.990;2023-09-30T01:13:13;11.20;99.90
30063;DHT22;16889;67.864;24.990;2023-09-30T01:17:58;11.00;99.90
30063;DHT22;16889;67.864;24.990;2023-09-30T01:22:44;11.00;99.90
30063;DHT22;16889;67.864;24.990;2023-09-30T01:27:31;11.00;99.90
30063;DHT22;16889;67.864;24.990;2023-09-30T01:32:17;11.10;99.90
30063;DHT22;16889;67.864;24.990;2023-09-30T01:37:03;11.10;99.90
30063;DHT22;16889;67.864;24.990;2023-09-30T01:41:50;11.00;99.90
30063;DHT22;16889;67.864;24.990;2023-09-30T01:46:36;11.10;99.90
30063;DHT22;16889;67.864;24.990;2023-09-30T01:51:22;11.10;99.90
30063;DHT22;16889;67.864;24.990;2023-09-30T01:56:09;11.10;99.90
30063;DHT22;16889;67.864;24.990;2023-09-30T02:01:04;11.10;99.90
30063;DHT22;16889;67.864;24.990;2023-09-30T02:05:50;11.10;99.90
30063;DHT22;16889;67.864;24.990;2023-09-30T02:10:36;11.00;99.90
30063;DHT22;16889;67.864;24.990;2023-09-30T02:15:22;10.90;99.90
30063;DHT22;16889;67.864;24.990;2023-09-30T02:20:08;10.90;99.90
30063;DHT22;16889;67.864;24.990;2023-09-30T02:24:58;10.90;99.90
30063;DHT22;16889;67.864;24.990;2023-09-30T02:29:44;10.90;99.90
30063;DHT22;16889;67.864;24.990;2023-09-30T02:34:30;10.90;99.90
30063;DHT22;16889;67.864;24.990;2023-09-30T02:39:17;10.90;99.90
30063;DHT22;16889;67.864;24.990;2023-09-30T02:44:04;10.80;99.90
30063;DHT22;16889;67.864;24.990;2023-09-30T02:48:50;10.90;99.90
30063;DHT22;16889;67.864;24.990;2023-09-30T02:53:37;10.90;99.90
30063;DHT22;16889;67.864;24.990;2023-09-30T02:58:24;10.90;99.90
30063;DHT22;16889;67.864;24.990;2023-09-30T03:03:10;11.00;99.90
30063;DHT22;16889;67.864;24.990;2023-09-30T03:07:56;10.90;99.90
30063;DHT22;16889;67.864;24.990;2023-09-30T03:12:42;11.00;99.90
30063;DHT22;16889;67.864;24.990;2023-09-30T03:17:28;11.00;99.90
30063;DHT22;16889;67.864;24.990;2023-09-30T03:22:14;10.90;99.90
30063;DHT22;16889;67.864;24.990;2023-09-30T03:27:01;11.00;99.90
30063;DHT22;16889;67.864;24.990;2023-09-30T03:31:47;11.00;99.90
30063;DHT22;16889;67.864;24.990;2023-09-30T03:36:33;11.00;99.90
30063;DHT22;16889;67.864;24.990;2023-09-30T03:41:19;11.00;99.90
30063;DHT22;16889;67.864;24.990;2023-09-30T03:46:05;11.00;99.90
30063;DHT22;16889;67.864;24.990;2023-09-30T03:50:51;11.00;99.90
30063;DHT22;16889;67.864;24.990;2023-09-30T03:55:39;11.00;99.90
30063;DHT22;16889;67.864;24.990;2023-09-30T04:00:26;11.10;99.90
30063;DHT22;16889;67.864;24.990;2023-09-30T04:05:12;11.10;99.90
30063;DHT22;16889;67.864;24.990;2023-09-30T04:09:59;11.10;99.90
30063;DHT22;16889;67.864;24.990;2023-09-30T04:14:50;11.10;99.90
30063;DHT22;16889;67.864;24.990;2023-09-30T04:19:37;11.10;99.90
30063;DHT22;16889;67.864;24.990;2023-09-30T04:24:23;11.10;99.90
30063;DHT22;16889;67.864;24.990;2023-09-30T04:29:09;11.00;99.90
30063;DHT22;16889;67.864;24.990;2023-09-30T04:33:56;11.00;99.90
30063;DHT22;16889;67.864;24.990;2023-09-30T04:38:43;11.00;99.90
30063;DHT22;16889;67.864;24.990;2023-09-30T04:43:29;11.10;99.90
30063;DHT22;16889;67.864;24.990;2023-09-30T04:48:15;11.10;99.90
30063;DHT22;16889;67.864;24.990;2023-09-30T04:53:01;11.10;99.90
30063;DHT22;16889;67.864;24.990;2023-09-30T04:57:48;11.00;99.90
30063;DHT22;16889;67.864;24.990;2023-09-30T05:02:35;11.10;99.90
30063;DHT22;16889;67.864;24.990;2023-09-30T05:07:21;11.10;99.90
30063;DHT22;16889;67.864;24.990;2023-09-30T05:12:08;11.10;99.90
30063;DHT22;16889;67.864;24.990;2023-09-30T05:16:53;11.10;99.90
30063;DHT22;16889;67.864;24.990;2023-09-30T05:21:40;11.10;99.90
30063;DHT22;16889;67.864;24.990;2023-09-30T05:26:26;11.10;99.90
30063;DHT22;16889;67.864;24.990;2023-09-30T05:31:12;11.10;99.90
30063;DHT22;16889;67.864;24.990;2023-09-30T05:35:58;11.10;99.90
30063;DHT22;16889;67.864;24.990;2023-09-30T05:40:45;11.10;99.90
30063;DHT22;16889;67.864;24.990;2023-09-30T05:45:32;11.20;99.90
30063;DHT22;16889;67.864;24.990;2023-09-30T05:50:21;11.10;99.90
30063;DHT22;16889;67.864;24.990;2023-09-30T05:55:11;11.10;99.90
30063;DHT22;16889;67.864;24.990;2023-09-30T05:59:57;11.10;99.90
30063;DHT22;16889;67.864;24.990;2023-09-30T06:04:43;11.10;99.90
30063;DHT22;16889;67.864;24.990;2023-09-30T06:09:31;11.10;99.90
30063;DHT22;16889;67.864;24.990;2023-09-30T06:14:17;11.10;99.90
30063;DHT22;16889;67.864;24.990;2023-09-30T06:19:03;11.10;99.90
30063;DHT22;16889;67.864;24.990;2023-09-30T06:23:49;11.20;99.90
30063;DHT22;16889;67.864;24.990;2023-09-30T06:28:38;11.30;99.90
30063;DHT22;16889;67.864;24.990;2023-09-30T06:33:27;11.30;99.90
30063;DHT22;16889;67.864;24.990;2023-09-30T06:38:15;11.30;99.90
30063;DHT22;16889;67.864;24.990;2023-09-30T06:43:01;11.30;99.90
30063;DHT22;16889;67.864;24.990;2023-09-30T06:47:47;11.40;99.90
30063;DHT22;16889;67.864;24.990;2023-09-30T06:52:40;11.60;99.90
30063;DHT22;16889;67.864;24.990;2023-09-30T06:57:27;11.50;99.90
30063;DHT22;16889;67.864;24.990;2023-09-30T07:02:12;11.60;99.90
30063;DHT22;16889;67.864;24.990;2023-09-30T07:06:59;11.60;99.90
30063;DHT22;16889;67.864;24.990;2023-09-30T07:11:45;11.60;99.90
30063;DHT22;16889;67.864;24.990;2023-09-30T07:16:31;11.80;99.90
30063;DHT22;16889;67.864;24.990;2023-09-30T07:21:17;11.80;99.90
30063;DHT22;16889;67.864;24.990;2023-09-30T07:26:03;11.90;99.90
30063;DHT22;16889;67.864;24.990;2023-09-30T07:30:49;11.90;99.90
30063;DHT22;16889;67.864;24.990;2023-09-30T07:35:35;11.90;99.90
30063;DHT22;16889;67.864;24.990;2023-09-30T07:40:21;11.90;99.90
30063;DHT22;16889;67.864;24.990;2023-09-30T07:45:07;11.90;99.90
30063;DHT22;16889;67.864;24.990;2023-09-30T07:49:53;12.00;99.90
30063;DHT22;16889;67.864;24.990;2023-09-30T07:54:39;12.10;99.90
30063;DHT22;16889;67.864;24.990;2023-09-30T07:59:26;12.00;99.90
30063;DHT22;16889;67.864;24.990;2023-09-30T08:04:12;12.00;99.90
30063;DHT22;16889;67.864;24.990;2023-09-30T08:08:58;12.00;99.90
30063;DHT22;16889;67.864;24.990;2023-09-30T08:13:44;12.00;99.90
30063;DHT22;16889;67.864;24.990;2023-09-30T08:18:30;12.10;99.90
30063;DHT22;16889;67.864;24.990;2023-09-30T08:23:16;12.10;99.90
30063;DHT22;16889;67.864;24.990;2023-09-30T08:28:02;12.10;99.90
30063;DHT22;16889;67.864;24.990;2023-09-30T08:32:48;12.10;99.90
30063;DHT22;16889;67.864;24.990;2023-09-30T08:37:34;12.00;99.90
30063;DHT22;16889;67.864;24.990;2023-09-30T08:42:22;12.00;99.90
30063;DHT22;16889;67.864;24.990;2023-09-30T08:47:10;12.00;99.90
30063;DHT22;16889;67.864;24.990;2023-09-30T08:51:57;12.10;99.90
30063;DHT22;16889;67.864;24.990;2023-09-30T08:56:47;12.20;99.90
30063;DHT22;16889;67.864;24.990;2023-09-30T09:01:35;12.20;99.90
30063;DHT22;16889;67.864;24.990;2023-09-30T09:06:22;12.40;99.90
30063;DHT22;16889;67.864;24.990;2023-09-30T09:11:08;12.20;99.90
30063;DHT22;16889;67.864;24.990;2023-09-30T09:16:12;12.30;99.90
30063;DHT22;16889;67.864;24.990;2023-09-30T09:21:09;12.40;99.90
30063;DHT22;16889;67.864;24.990;2023-09-30T09:25:57;12.40;99.90
30063;DHT22;16889;67.864;24.990;2023-09-30T09:30:43;12.40;99.90
30063;DHT22;16889;67.864;24.990;2023-09-30T09:35:30;12.30;99.90
30063;DHT22;16889;67.864;24.990;2023-09-30T09:40:23;12.40;99.90
30063;DHT22;16889;67.864;24.990;2023-09-30T09:45:10;12.30;99.90
30063;DHT22;16889;67.864;24.990;2023-09-30T09:49:57;12.40;99.90
30063;DHT22;16889;67.864;24.990;2023-09-30T09:54:45;12.40;99.90
30063;DHT22;16889;67.864;24.990;2023-09-30T09:59:32;12.40;99.90
30063;DHT22;16889;67.864;24.990;2023-09-30T10:04:18;12.50;99.90
30063;DHT22;16889;67.864;24.990;2023-09-30T10:09:10;12.40;99.90
30063;DHT22;16889;67.864;24.990;2023-09-30T10:13:57;12.40;99.90
30063;DHT22;16889;67.864;24.990;2023-09-30T10:19:07;12.40;99.90
30063;DHT22;16889;67.864;24.990;2023-09-30T10:24:47;12.40;99.90
30063;DHT22;16889;67.864;24.990;2023-09-30T10:29:40;12.40;99.90
30063;DHT22;16889;67.864;24.990;2023-09-30T10:34:27;12.60;99.90
30063;DHT22;16889;67.864;24.990;2023-09-30T10:39:14;12.60;99.90
30063;DHT22;16889;67.864;24.990;2023-09-30T10:49:37;12.70;99.90
30063;DHT22;16889;67.864;24.990;2023-09-30T10:54:26;12.70;99.90
30063;DHT22;16889;67.864;24.990;2023-09-30T10:59:22;12.70;99.90
30063;DHT22;16889;67.864;24.990;2023-09-30T11:04:08;12.80;99.90
30063;DHT22;16889;67.864;24.990;2023-09-30T11:08:59;12.70;99.90
30063;DHT22;16889;67.864;24.990;2023-09-30T11:13:48;12.70;99.90
30063;DHT22;16889;67.864;24.990;2023-09-30T11:18:35;12.70;99.90
30063;DHT22;16889;67.864;24.990;2023-09-30T11:23:25;12.60;99.90
30063;DHT22;16889;67.864;24.990;2023-09-30T11:28:18;12.60;99.90
30063;DHT22;16889;67.864;24.990;2023-09-30T11:33:04;12.60;99.90
30063;DHT22;16889;67.864;24.990;2023-09-30T11:37:51;12.60;99.90
30063;DHT22;16889;67.864;24.990;2023-09-30T11:42:37;12.60;99.90
30063;DHT22;16889;67.864;24.990;2023-09-30T11:47:29;12.60;99.90
30063;DHT22;16889;67.864;24.990;2023-09-30T11:52:26;12.50;99.90
30063;DHT22;16889;67.864;24.990;2023-09-30T11:57:16;12.50;99.90
30063;DHT22;16889;67.864;24.990;2023-09-30T12:02:03;12.40;99.90
30063;DHT22;16889;67.864;24.990;2023-09-30T12:06:51;12.40;99.90
30063;DHT22;16889;67.864;24.990;2023-09-30T12:11:37;12.50;99.90
30063;DHT22;16889;67.864;24.990;2023-09-30T12:16:23;12.50;99.90
30063;DHT22;16889;67.864;24.990;2023-09-30T12:21:10;12.50;99.90
30063;DHT22;16889;67.864;24.990;2023-09-30T12:25:56;12.40;99.90
30063;DHT22;16889;67.864;24.990;2023-09-30T12:30:42;12.40;99.90
30063;DHT22;16889;67.864;24.990;2023-09-30T12:35:29;12.40;99.90
30063;DHT22;16889;67.864;24.990;2023-09-30T12:40:15;12.40;99.90
30063;DHT22;16889;67.864;24.990;2023-09-30T12:45:02;12.40;99.90
30063;DHT22;16889;67.864;24.990;2023-09-30T12:49:52;12.30;99.90
30063;DHT22;16889;67.864;24.990;2023-09-30T12:54:39;12.20;99.90
30063;DHT22;16889;67.864;24.990;2023-09-30T12:59:25;12.20;99.90
30063;DHT22;16889;67.864;24.990;2023-09-30T13:04:11;12.20;99.90
30063;DHT22;16889;67.864;24.990;2023-09-30T13:08:57;12.10;99.90
30063;DHT22;16889;67.864;24.990;2023-09-30T13:13:44;12.10;99.90
30063;DHT22;16889;67.864;24.990;2023-09-30T13:18:31;12.10;99.90
30063;DHT22;16889;67.864;24.990;2023-09-30T13:23:18;12.10;99.90
30063;DHT22;16889;67.864;24.990;2023-09-30T13:28:04;12.10;99.90
30063;DHT22;16889;67.864;24.990;2023-09-30T13:32:50;12.10;99.90
30063;DHT22;16889;67.864;24.990;2023-09-30T13:37:36;12.10;99.90
30063;DHT22;16889;67.864;24.990;2023-09-30T13:42:22;12.10;99.90
30063;DHT22;16889;67.864;24.990;2023-09-30T13:47:08;12.10;99.90
30063;DHT22;16889;67.864;24.990;2023-09-30T13:51:55;12.10;99.90
30063;DHT22;16889;67.864;24.990;2023-09-30T13:56:41;11.90;99.90
30063;DHT22;16889;67.864;24.990;2023-09-30T14:01:28;11.80;99.90
30063;DHT22;16889;67.864;24.990;2023-09-30T14:06:14;11.80;99.90
30063;DHT22;16889;67.864;24.990;2023-09-30T14:11:00;11.70;99.90
30063;DHT22;16889;67.864;24.990;2023-09-30T14:15:46;11.60;99.90
30063;DHT22;16889;67.864;24.990;2023-09-30T14:20:32;11.60;99.90
30063;DHT22;16889;67.864;24.990;2023-09-30T14:25:19;11.70;99.90
30063;DHT22;16889;67.864;24.990;2023-09-30T14:30:06;11.60;99.90
30063;DHT22;16889;67.864;24.990;2023-09-30T14:34:52;11.60;99.90
30063;DHT22;16889;67.864;24.990;2023-09-30T14:39:38;11.60;99.90
30063;DHT22;16889;67.864;24.990;2023-09-30T14:44:24;11.60;99.90
30063;DHT22;16889;67.864;24.990;2023-09-30T14:49:11;11.50;99.90
30063;DHT22;16889;67.864;24.990;2023-09-30T14:53:56;11.50;99.90
30063;DHT22;16889;67.864;24.990;2023-09-30T14:58:43;11.40;99.90
30063;DHT22;16889;67.864;24.990;2023-09-30T15:03:29;11.30;99.90
30063;DHT22;16889;67.864;24.990;2023-09-30T15:08:15;11.30;99.90
30063;DHT22;16889;67.864;24.990;2023-09-30T15:13:01;11.30;99.90
30063;DHT22;16889;67.864;24.990;2023-09-30T15:17:50;11.30;99.90
30063;DHT22;16889;67.864;24.990;2023-09-30T15:22:37;11.30;99.90
30063;DHT22;16889;67.864;24.990;2023-09-30T15:27:24;11.20;99.90
30063;DHT22;16889;67.864;24.990;2023-09-30T15:32:12;11.20;99.90
30063;DHT22;16889;67.864;24.990;2023-09-30T15:36:58;11.10;99.90
30063;DHT22;16889;67.864;24.990;2023-09-30T15:41:44;11.10;99.90
30063;DHT22;16889;67.864;24.990;2023-09-30T15:46:30;11.10;99.90
30063;DHT22;16889;67.864;24.990;2023-09-30T15:51:16;11.10;99.90
30063;DHT22;16889;67.864;24.990;2023-09-30T15:56:02;11.10;99.90
30063;DHT22;16889;67.864;24.990;2023-09-30T16:00:48;11.10;99.90
30063;DHT22;16889;67.864;24.990;2023-09-30T16:05:36;11.00;99.90
30063;DHT22;16889;67.864;24.990;2023-09-30T16:10:23;11.00;99.90
30063;DHT22;16889;67.864;24.990;2023-09-30T16:15:09;11.00;99.90
30063;DHT22;16889;67.864;24.990;2023-09-30T16:19:56;10.90;99.90
30063;DHT22;16889;67.864;24.990;2023-09-30T16:24:42;10.90;99.90
30063;DHT22;16889;67.864;24.990;2023-09-30T16:29:28;10.80;99.90
30063;DHT22;16889;67.864;24.990;2023-09-30T16:34:14;10.80;99.90
30063;DHT22;16889;67.864;24.990;2023-09-30T16:39:00;10.80;99.90
30063;DHT22;16889;67.864;24.990;2023-09-30T16:43:46;10.80;99.90
30063;DHT22;16889;67.864;24.990;2023-09-30T16:48:32;10.70;99.90
30063;DHT22;16889;67.864;24.990;2023-09-30T16:53:18;10.70;99.90
30063;DHT22;16889;67.864;24.990;2023-09-30T16:58:05;10.70;99.90
30063;DHT22;16889;67.864;24.990;2023-09-30T17:02:53;10.70;99.90
30063;DHT22;16889;67.864;24.990;2023-09-30T17:07:39;10.80;99.90
30063;DHT22;16889;67.864;24.990;2023-09-30T17:12:25;10.80;99.90
30063;DHT22;16889;67.864;24.990;2023-09-30T17:17:10;10.80;99.90
30063;DHT22;16889;67.864;24.990;2023-09-30T17:21:57;10.90;99.90
30063;DHT22;16889;67.864;24.990;2023-09-30T17:26:44;10.90;99.90
30063;DHT22;16889;67.864;24.990;2023-09-30T17:31:30;10.90;99.90
30063;DHT22;16889;67.864;24.990;2023-09-30T17:36:17;10.80;99.90
30063;DHT22;16889;67.864;24.990;2023-09-30T17:41:06;10.90;99.90
30063;DHT22;16889;67.864;24.990;2023-09-30T17:45:52;10.80;99.90
30063;DHT22;16889;67.864;24.990;2023-09-30T17:50:41;10.80;99.90
30063;DHT22;16889;67.864;24.990;2023-09-30T17:55:27;10.90;99.90
30063;DHT22;16889;67.864;24.990;2023-09-30T18:00:13;10.90;99.90
30063;DHT22;16889;67.864;24.990;2023-09-30T18:04:59;10.90;99.90
30063;DHT22;16889;67.864;24.990;2023-09-30T18:09:45;10.90;99.90
30063;DHT22;16889;67.864;24.990;2023-09-30T18:14:31;10.90;99.90
30063;DHT22;16889;67.864;24.990;2023-09-30T18:19:17;10.90;99.90
30063;DHT22;16889;67.864;24.990;2023-09-30T18:24:05;10.90;99.90
30063;DHT22;16889;67.864;24.990;2023-09-30T18:28:50;10.90;99.90
30063;DHT22;16889;67.864;24.990;2023-09-30T18:33:38;10.90;99.90
30063;DHT22;16889;67.864;24.990;2023-09-30T18:38:24;10.90;99.90
30063;DHT22;16889;67.864;24.990;2023-09-30T18:43:10;10.80;99.90
30063;DHT22;16889;67.864;24.990;2023-09-30T18:47:59;10.80;99.90
30063;DHT22;16889;67.864;24.990;2023-09-30T18:52:45;10.90;99.90
30063;DHT22;16889;67.864;24.990;2023-09-30T18:57:31;10.90;99.90
30063;DHT22;16889;67.864;24.990;2023-09-30T19:02:17;10.80;99.90
30063;DHT22;16889;67.864;24.990;2023-09-30T19:07:03;10.80;99.90
30063;DHT22;16889;67.864;24.990;2023-09-30T19:11:50;10.70;99.90
30063;DHT22;16889;67.864;24.990;2023-09-30T19:16:36;10.70;99.90
30063;DHT22;16889;67.864;24.990;2023-09-30T19:21:23;10.60;99.90
30063;DHT22;16889;67.864;24.990;2023-09-30T19:26:13;10.60;99.90
30063;DHT22;16889;67.864;24.990;2023-09-30T19:30:59;10.60;99.90
30063;DHT22;16889;67.864;24.990;2023-09-30T19:35:45;10.70;99.90
30063;DHT22;16889;67.864;24.990;2023-09-30T19:40:31;10.60;99.90
30063;DHT22;16889;67.864;24.990;2023-09-30T19:45:17;10.60;99.90
30063;DHT22;16889;67.864;24.990;2023-09-30T19:50:05;10.60;99.90
30063;DHT22;16889;67.864;24.990;2023-09-30T19:54:51;10.60;99.90
30063;DHT22;16889;67.864;24.990;2023-09-30T19:59:38;10.60;99.90
30063;DHT22;16889;67.864;24.990;2023-09-30T20:04:25;10.50;99.90
30063;DHT22;16889;67.864;24.990;2023-09-30T20:09:11;10.50;99.90
30063;DHT22;16889;67.864;24.990;2023-09-30T20:13:58;10.40;99.90
30063;DHT22;16889;67.864;24.990;2023-09-30T20:18:45;10.40;99.90
30063;DHT22;16889;67.864;24.990;2023-09-30T20:23:31;10.40;99.90
30063;DHT22;16889;67.864;24.990;2023-09-30T20:28:17;10.30;99.90
30063;DHT22;16889;67.864;24.990;2023-09-30T20:33:03;10.20;99.90
30063;DHT22;16889;67.864;24.990;2023-09-30T20:37:49;10.10;99.90
30063;DHT22;16889;67.864;24.990;2023-09-30T20:42:36;10.00;99.90
30063;DHT22;16889;67.864;24.990;2023-09-30T20:47:22;9.80;99.90
30063;DHT22;16889;67.864;24.990;2023-09-30T20:52:08;9.60;99.90
30063;DHT22;16889;67.864;24.990;2023-09-30T20:56:54;9.50;99.90
30063;DHT22;16889;67.864;24.990;2023-09-30T21:01:40;9.30;99.90
30063;DHT22;16889;67.864;24.990;2023-09-30T21:06:29;9.20;99.90
30063;DHT22;16889;67.864;24.990;2023-09-30T21:11:15;9.10;99.90
30063;DHT22;16889;67.864;24.990;2023-09-30T21:16:02;9.00;99.90
30063;DHT22;16889;67.864;24.990;2023-09-30T21:20:48;9.00;99.90
30063;DHT22;16889;67.864;24.990;2023-09-30T21:25:34;9.00;99.90
30063;DHT22;16889;67.864;24.990;2023-09-30T21:30:23;8.90;99.90
30063;DHT22;16889;67.864;24.990;2023-09-30T21:35:10;8.90;99.90
30063;DHT22;16889;67.864;24.990;2023-09-30T21:39:56;8.80;99.90
30063;DHT22;16889;67.864;24.990;2023-09-30T21:44:42;8.90;99.90
30063;DHT22;16889;67.864;24.990;2023-09-30T21:49:28;8.80;99.90
30063;DHT22;16889;67.864;24.990;2023-09-30T21:54:14;8.80;99.90
30063;DHT22;16889;67.864;24.990;2023-09-30T21:59:00;8.80;99.90
30063;DHT22;16889;67.864;24.990;2023-09-30T22:03:46;8.80;99.90
30063;DHT22;16889;67.864;24.990;2023-09-30T22:08:32;8.70;99.90
30063;DHT22;16889;67.864;24.990;2023-09-30T22:13:18;8.70;99.90
30063;DHT22;16889;67.864;24.990;2023-09-30T22:18:05;8.60;99.90
30063;DHT22;16889;67.864;24.990;2023-09-30T22:22:51;8.60;99.90
30063;DHT22;16889;67.864;24.990;2023-09-30T22:27:38;8.60;99.90
30063;DHT22;16889;67.864;24.990;2023-09-30T22:32:25;8.50;99.90
30063;DHT22;16889;67.864;24.990;2023-09-30T22:37:11;8.40;99.90
30063;DHT22;16889;67.864;24.990;2023-09-30T22:41:57;8.30;99.90
30063;DHT22;16889;67.864;24.990;2023-09-30T22:46:43;8.30;99.90
30063;DHT22;16889;67.864;24.990;2023-09-30T22:51:29;8.30;99.90
30063;DHT22;16889;67.864;24.990;2023-09-30T22:56:16;8.20;99.90
30063;DHT22;16889;67.864;24.990;2023-09-30T23:01:06;8.10;99.90
30063;DHT22;16889;67.864;24.990;2023-09-30T23:05:57;8.10;99.90
30063;DHT22;16889;67.864;24.990;2023-09-30T23:10:44;8.00;99.90
30063;DHT22;16889;67.864;24.990;2023-09-30T23:15:30;7.80;99.90
30063;DHT22;16889;67.864;24.990;2023-09-30T23:20:18;7.80;99.90
30063;DHT22;16889;67.864;24.990;2023-09-30T23:25:08;7.70;99.90
30063;DHT22;16889;67.864;24.990;2023-09-30T23:29:56;7.70;99.90
30063;DHT22;16889;67.864;24.990;2023-09-30T23:34:42;7.70;99.90
30063;DHT22;16889;67.864;24.990;2023-09-30T23:39:29;7.70;99.90
30063;DHT22;16889;67.864;24.990;2023-09-30T23:44:19;7.70;99.90
30063;DHT22;16889;67.864;24.990;2023-09-30T23:49:06;7.70;99.90
30063;DHT22;16889;67.864;24.990;2023-09-30T23:53:52;7.70;99.90
30063;DHT22;16889;67.864;24.990;2023-09-30T23:58:39;7.80;99.90
